createdAt,value
2022-09-10T00:02:26.569Z,100.00
2022-09-10T00:04:54.897Z,100.00
2022-09-10T00:07:23.154Z,100.00
2022-09-10T00:09:51.697Z,100.00
2022-09-10T00:12:19.921Z,100.00
2022-09-10T00:14:48.151Z,100.00
2022-09-10T00:17:17.785Z,100.00
2022-09-10T00:19:48.608Z,100.00
2022-09-10T00:22:16.999Z,100.00
2022-09-10T00:24:45.485Z,100.00
2022-09-10T00:27:13.738Z,100.00
2022-09-10T00:29:42.069Z,100.00
2022-09-10T00:32:10.254Z,100.00
2022-09-10T00:34:40.084Z,100.00
2022-09-10T00:37:08.387Z,100.00
2022-09-10T00:39:36.733Z,100.00
2022-09-10T00:42:05.417Z,100.00
2022-09-10T00:44:58.703Z,100.00
2022-09-10T00:47:29.407Z,100.00
2022-09-10T00:50:03.687Z,100.00
2022-09-10T00:52:33.642Z,100.00
2022-09-10T00:55:04.182Z,100.00
2022-09-10T00:57:32.536Z,100.00
2022-09-10T01:00:03.901Z,100.00
2022-09-10T01:02:32.299Z,100.00
2022-09-10T01:05:04.130Z,100.00
2022-09-10T01:07:33.740Z,100.00
2022-09-10T01:10:05.271Z,100.00
2022-09-10T01:13:14.482Z,100.00
2022-09-10T01:15:48.908Z,100.00
2022-09-10T01:18:28.304Z,100.00
2022-09-10T01:21:03.408Z,100.00
2022-09-10T01:24:00.284Z,100.00
2022-09-10T01:26:41.992Z,100.00
2022-09-10T01:29:17.488Z,100.00
2022-09-10T01:31:51.111Z,100.00
2022-09-10T01:34:23.214Z,100.00
2022-09-10T01:36:53.227Z,100.00
2022-09-10T01:39:22.571Z,100.00
2022-09-10T01:41:51.317Z,100.00
2022-09-10T01:44:47.608Z,100.00
2022-09-10T01:47:28.836Z,100.00
2022-09-10T01:50:13.876Z,100.00
2022-09-10T01:52:49.666Z,100.00
2022-09-10T01:55:35.120Z,100.00
2022-09-10T01:58:09.932Z,100.00
2022-09-10T02:00:52.911Z,100.00
2022-09-10T02:03:23.922Z,100.00
2022-09-10T02:05:55.052Z,100.00
2022-09-10T02:08:26.319Z,100.00
2022-09-10T02:10:59.299Z,100.00
2022-09-10T02:13:32.062Z,100.00
2022-09-10T02:16:32.933Z,100.00
2022-09-10T02:19:02.724Z,100.00
2022-09-10T02:21:32.080Z,100.00
2022-09-10T02:24:06.028Z,100.00
2022-09-10T02:26:34.549Z,100.00
2022-09-10T02:29:03.230Z,100.00
2022-09-10T02:31:32.955Z,100.00
2022-09-10T02:34:03.245Z,100.00
2022-09-10T02:36:31.951Z,100.00
2022-09-10T02:39:00.435Z,100.00
2022-09-10T02:41:34.261Z,100.00
2022-09-10T02:44:04.849Z,100.00
2022-09-10T02:46:34.508Z,100.00
2022-09-10T02:49:03.200Z,100.00
2022-09-10T02:51:33.509Z,100.00
2022-09-10T02:54:01.818Z,100.00
2022-09-10T02:56:32.494Z,100.00
2022-09-10T02:59:00.746Z,100.00
2022-09-10T03:01:30.250Z,100.00
2022-09-10T03:04:05.853Z,100.00
2022-09-10T03:06:34.569Z,100.00
2022-09-10T03:09:02.834Z,100.00
2022-09-10T03:11:31.767Z,100.00
2022-09-10T03:14:00.432Z,100.00
2022-09-10T03:16:30.979Z,100.00
2022-09-10T03:18:59.282Z,100.00
2022-09-10T03:21:29.501Z,100.00
2022-09-10T03:23:59.095Z,100.00
2022-09-10T03:26:30.701Z,100.00
2022-09-10T03:28:59.319Z,100.00
2022-09-10T03:31:31.169Z,100.00
2022-09-10T03:33:59.832Z,100.00
2022-09-10T03:36:31.459Z,100.00
2022-09-10T03:39:00.470Z,100.00
2022-09-10T03:41:32.270Z,100.00
2022-09-10T03:44:01.343Z,100.00
2022-09-10T03:46:29.546Z,100.00
2022-09-10T03:49:02.453Z,100.00
2022-09-10T03:51:34.182Z,100.00
2022-09-10T03:54:03.112Z,100.00
2022-09-10T03:56:34.110Z,100.00
2022-09-10T03:59:02.375Z,100.00
2022-09-10T04:01:30.636Z,100.00
2022-09-10T04:03:58.937Z,100.00
2022-09-10T04:06:32.358Z,100.00
2022-09-10T04:09:02.468Z,100.00
2022-09-10T04:11:30.753Z,100.00
2022-09-10T04:14:00.217Z,100.00
2022-09-10T04:16:29.461Z,100.00
2022-09-10T04:18:57.908Z,100.00
2022-09-10T04:21:27.544Z,100.00
2022-09-10T04:23:59.352Z,100.00
2022-09-10T04:26:29.230Z,100.00
2022-09-10T04:28:57.569Z,100.00
2022-09-10T04:31:26.012Z,100.00
2022-09-10T04:34:02.187Z,100.00
2022-09-10T04:36:32.411Z,100.00
2022-09-10T04:39:00.715Z,100.00
2022-09-10T04:41:31.649Z,100.00
2022-09-10T04:43:59.994Z,100.00
2022-09-10T04:46:28.262Z,100.00
2022-09-10T04:49:00.380Z,100.00
2022-09-10T04:51:28.807Z,100.00
2022-09-10T04:53:59.467Z,100.00
2022-09-10T04:56:35.019Z,100.00
2022-09-10T04:59:03.243Z,100.00
2022-09-10T05:01:35.279Z,100.00
2022-09-10T05:04:04.081Z,100.00
2022-09-10T05:06:32.588Z,100.00
2022-09-10T05:09:00.809Z,100.00
2022-09-10T05:11:29.464Z,100.00
2022-09-10T05:13:59.052Z,100.00
2022-09-10T05:16:30.205Z,100.00
2022-09-10T05:18:59.274Z,100.00
2022-09-10T05:21:29.250Z,100.00
2022-09-10T05:23:57.501Z,100.00
2022-09-10T05:26:27.724Z,100.00
2022-09-10T05:28:59.855Z,100.00
2022-09-10T05:31:28.984Z,100.00
2022-09-10T05:33:59.430Z,100.00
2022-09-10T05:36:27.924Z,100.00
2022-09-10T05:38:56.939Z,100.00
2022-09-10T05:41:25.923Z,100.00
2022-09-10T05:43:56.305Z,100.00
2022-09-10T05:46:26.108Z,100.00
2022-09-10T05:48:58.888Z,100.00
2022-09-10T05:51:30.723Z,100.00
2022-09-10T05:54:03.632Z,100.00
2022-09-10T05:56:34.248Z,100.00
2022-09-10T05:59:04.056Z,100.00
2022-09-10T06:01:36.101Z,100.00
2022-09-10T06:04:07.670Z,100.00
2022-09-10T06:06:39.206Z,100.00
2022-09-10T06:09:10.300Z,100.00
2022-09-10T06:11:49.586Z,100.00
2022-09-10T06:14:20.332Z,100.00
2022-09-10T06:16:52.088Z,100.00
2022-09-10T06:19:21.124Z,100.00
2022-09-10T06:21:52.468Z,100.00
2022-09-10T06:24:23.739Z,100.00
2022-09-10T06:26:55.908Z,100.00
2022-09-10T06:29:25.926Z,100.00
2022-09-10T06:31:55.661Z,100.00
2022-09-10T06:34:23.964Z,100.00
2022-09-10T06:36:53.766Z,100.00
2022-09-10T06:39:22.216Z,100.00
2022-09-10T06:41:54.951Z,100.00
2022-09-10T06:44:41.969Z,100.00
2022-09-10T06:48:06.846Z,100.00
2022-09-10T06:50:12.509Z,100.00
2022-09-10T06:52:42.613Z,100.00
2022-09-10T06:55:13.890Z,100.00
2022-09-10T06:57:47.142Z,100.00
2022-09-10T07:00:18.051Z,100.00
2022-09-10T07:02:53.289Z,100.00
2022-09-10T07:05:22.777Z,100.00
2022-09-10T07:07:51.511Z,100.00
2022-09-10T07:10:20.153Z,100.00
2022-09-10T07:12:49.793Z,100.00
2022-09-10T07:15:19.434Z,100.00
2022-09-10T07:17:49.490Z,100.00
2022-09-10T07:20:20.424Z,100.00
2022-09-10T07:22:49.603Z,100.00
2022-09-10T07:25:21.186Z,100.00
2022-09-10T07:28:03.648Z,100.00
2022-09-10T07:30:36.060Z,100.00
2022-09-10T07:33:05.266Z,100.00
2022-09-10T07:35:37.685Z,100.00
2022-09-10T07:38:11.439Z,100.00
2022-09-10T07:40:41.646Z,100.00
2022-09-10T07:43:11.083Z,100.00
2022-09-10T07:45:41.936Z,100.00
2022-09-10T07:48:13.854Z,100.00
2022-09-10T07:50:45.476Z,100.00
2022-09-10T07:53:17.930Z,100.00
2022-09-10T07:55:47.640Z,100.00
2022-09-10T07:58:16.686Z,100.00
2022-09-10T08:00:47.487Z,100.00
2022-09-10T08:03:18.507Z,100.00
2022-09-10T08:05:50.600Z,100.00
2022-09-10T08:08:21.261Z,100.00
2022-09-10T08:10:50.017Z,100.00
2022-09-10T08:13:20.361Z,100.00
2022-09-10T08:15:48.945Z,100.00
2022-09-10T08:18:18.567Z,100.00
2022-09-10T08:20:56.658Z,100.00
2022-09-10T08:23:25.857Z,100.00
2022-09-10T08:25:55.233Z,100.00
2022-09-10T08:28:25.750Z,100.00
2022-09-10T08:31:00.674Z,100.00
2022-09-10T08:33:30.979Z,100.00
2022-09-10T08:36:02.159Z,100.00
2022-09-10T08:38:39.080Z,100.00
2022-09-10T08:41:13.969Z,100.00
2022-09-10T08:43:55.636Z,100.00
2022-09-10T08:46:29.739Z,100.00
2022-09-10T08:49:08.588Z,100.00
2022-09-10T08:51:43.245Z,100.00
2022-09-10T08:54:15.816Z,100.00
2022-09-10T08:56:44.100Z,100.00
2022-09-10T08:59:21.873Z,100.00
2022-09-10T09:01:53.099Z,100.00
2022-09-10T09:04:30.898Z,100.00
2022-09-10T09:07:04.251Z,100.00
2022-09-10T09:09:32.999Z,100.00
2022-09-10T09:12:05.930Z,100.00
2022-09-10T09:14:46.753Z,100.00
2022-09-10T09:17:51.840Z,100.00
2022-09-10T09:20:34.059Z,100.00
2022-09-10T09:23:15.083Z,100.00
2022-09-10T09:25:49.228Z,100.00
2022-09-10T09:28:26.108Z,100.00
2022-09-10T09:30:59.451Z,100.00
2022-09-10T09:33:30.956Z,92.58
2022-09-10T09:36:02.176Z,89.84
2022-09-10T09:38:37.374Z,79.85
2022-09-10T09:41:10.290Z,68.78
2022-09-10T09:43:52.579Z,79.92
2022-09-10T09:46:24.523Z,76.78
2022-09-10T09:48:59.569Z,87.17
2022-09-10T09:51:30.973Z,91.76
2022-09-10T09:54:39.427Z,88.58
2022-09-10T09:57:03.124Z,81.07
2022-09-10T09:59:34.983Z,76.40
2022-09-10T10:02:07.644Z,83.22
2022-09-10T10:04:42.213Z,72.64
2022-09-10T10:07:12.703Z,61.89
2022-09-10T10:09:47.675Z,59.27
2022-09-10T10:12:21.317Z,62.29
2022-09-10T10:14:50.016Z,56.81
2022-09-10T10:17:38.818Z,53.56
2022-09-10T10:20:10.200Z,52.23
2022-09-10T10:22:39.591Z,50.35
2022-09-10T10:25:40.512Z,52.36
2022-09-10T10:28:17.918Z,51.74
2022-09-10T10:30:58.280Z,48.64
2022-09-10T10:33:30.631Z,47.08
2022-09-10T10:36:06.947Z,47.13
2022-09-10T10:38:35.963Z,46.08
2022-09-10T10:41:33.678Z,46.15
2022-09-10T10:44:13.858Z,45.47
2022-09-10T10:46:49.456Z,44.58
2022-09-10T10:49:26.049Z,45.85
2022-09-10T10:52:00.671Z,45.05
2022-09-10T10:54:49.226Z,43.65
2022-09-10T10:57:27.959Z,42.38
2022-09-10T10:59:58.051Z,42.24
2022-09-10T11:02:35.031Z,41.73
2022-09-10T11:05:08.357Z,41.09
2022-09-10T11:07:40.880Z,41.41
2022-09-10T11:10:17.765Z,41.04
2022-09-10T11:12:51.775Z,40.93
2022-09-10T11:15:30.397Z,42.91
2022-09-10T11:18:04.751Z,42.85
2022-09-10T11:20:35.701Z,40.16
2022-09-10T11:23:09.353Z,38.88
2022-09-10T11:25:41.895Z,39.23
2022-09-10T11:28:15.915Z,38.42
2022-09-10T11:30:48.513Z,37.77
2022-09-10T11:33:18.973Z,37.25
2022-09-10T11:35:49.432Z,37.06
2022-09-10T11:38:23.305Z,37.28
2022-09-10T11:41:00.532Z,38.14
2022-09-10T11:43:37.324Z,40.12
2022-09-10T11:46:10.105Z,38.61
2022-09-10T11:48:43.004Z,38.91
2022-09-10T11:51:16.132Z,38.93
2022-09-10T11:53:45.390Z,39.16
2022-09-10T11:56:24.242Z,39.46
2022-09-10T11:59:05.050Z,40.08
2022-09-10T12:01:49.400Z,41.25
2022-09-10T12:04:32.029Z,42.70
2022-09-10T12:07:05.948Z,41.89
2022-09-10T12:09:40.879Z,41.90
2022-09-10T12:12:15.412Z,41.66
2022-09-10T12:14:45.107Z,40.89
2022-09-10T12:17:17.827Z,42.04
2022-09-10T12:19:50.502Z,45.01
2022-09-10T12:22:22.967Z,45.88
2022-09-10T12:24:54.737Z,46.78
2022-09-10T12:27:23.259Z,47.31
2022-09-10T12:29:54.118Z,48.00
2022-09-10T12:32:31.917Z,48.25
2022-09-10T12:35:34.359Z,50.29
2022-09-10T12:38:35.825Z,49.20
2022-09-10T12:41:05.998Z,48.20
2022-09-10T12:43:57.724Z,46.25
2022-09-10T12:46:28.078Z,44.20
2022-09-10T12:49:08.165Z,44.28
2022-09-10T12:51:46.476Z,45.76
2022-09-10T12:54:29.606Z,46.00
2022-09-10T12:57:13.330Z,45.84
2022-09-10T13:00:14.052Z,42.24
2022-09-10T13:02:49.191Z,42.60
2022-09-10T13:05:31.635Z,43.38
2022-09-10T13:08:09.055Z,42.90
2022-09-10T13:10:37.586Z,46.20
2022-09-10T13:13:08.030Z,45.62
2022-09-10T13:15:39.270Z,44.34
2022-09-10T13:18:31.125Z,44.56
2022-09-10T13:20:59.945Z,47.27
2022-09-10T13:23:47.820Z,51.87
2022-09-10T13:26:50.234Z,64.15
2022-09-10T13:29:29.841Z,82.63
2022-09-10T13:32:02.876Z,89.20
2022-09-10T13:34:52.338Z,90.43
2022-09-10T13:37:34.995Z,95.41
2022-09-10T13:40:32.595Z,86.06
2022-09-10T13:43:10.639Z,99.83
2022-09-10T13:45:41.544Z,100.00
2022-09-10T13:48:15.149Z,100.00
2022-09-10T13:50:51.157Z,100.00
2022-09-10T13:53:20.706Z,100.00
2022-09-10T13:56:03.219Z,100.00
2022-09-10T13:58:37.614Z,100.00
2022-09-10T14:01:10.114Z,100.00
2022-09-10T14:03:40.962Z,100.00
2022-09-10T14:06:18.017Z,100.00
2022-09-10T14:08:51.166Z,100.00
2022-09-10T14:11:24.003Z,100.00
2022-09-10T14:13:57.929Z,100.00
2022-09-10T14:16:33.474Z,100.00
2022-09-10T14:19:04.554Z,100.00
2022-09-10T14:21:34.931Z,100.00
2022-09-10T14:24:04.451Z,100.00
2022-09-10T14:26:34.920Z,100.00
2022-09-10T14:29:05.043Z,100.00
2022-09-10T14:31:36.914Z,100.00
2022-09-10T14:34:41.861Z,100.00
2022-09-10T14:40:17.606Z,100.00
2022-09-10T14:42:46.333Z,100.00
2022-09-10T14:45:41.118Z,100.00
2022-09-10T14:48:44.965Z,100.00
2022-09-10T14:51:17.702Z,100.00
2022-09-10T14:53:54.336Z,100.00
2022-09-10T14:56:41.826Z,100.00
2022-09-10T14:59:17.211Z,100.00
2022-09-10T15:01:48.373Z,100.00
2022-09-10T15:04:19.192Z,100.00
2022-09-10T15:06:48.276Z,100.00
2022-09-10T15:09:16.711Z,100.00
2022-09-10T15:11:53.602Z,100.00
2022-09-10T15:14:23.013Z,100.00
2022-09-10T15:16:52.307Z,100.00
2022-09-10T15:19:20.750Z,100.00
2022-09-10T15:21:53.800Z,100.00
2022-09-10T15:24:24.229Z,100.00
2022-09-10T15:26:54.075Z,100.00
2022-09-10T15:29:23.482Z,100.00
2022-09-10T15:31:52.537Z,100.00
2022-09-10T15:34:20.849Z,100.00
2022-09-10T15:36:49.197Z,100.00
2022-09-10T15:39:17.850Z,100.00
2022-09-10T15:41:47.438Z,100.00
2022-09-10T15:44:18.466Z,100.00
2022-09-10T15:46:49.952Z,100.00
2022-09-10T15:49:18.473Z,100.00
2022-09-10T15:51:46.945Z,100.00
2022-09-10T15:54:15.559Z,100.00
2022-09-10T15:56:44.686Z,100.00
2022-09-10T15:59:13.212Z,100.00
2022-09-10T16:01:43.682Z,100.00
2022-09-10T16:04:12.406Z,100.00
2022-09-10T16:06:43.041Z,100.00
2022-09-10T16:09:13.990Z,100.00
2022-09-10T16:11:45.475Z,100.00
2022-09-10T16:14:16.056Z,100.00
2022-09-10T16:16:46.006Z,100.00
2022-09-10T16:19:15.743Z,100.00
2022-09-10T16:21:45.879Z,100.00
2022-09-10T16:24:14.385Z,100.00
2022-09-10T16:26:45.507Z,100.00
2022-09-10T16:29:15.826Z,100.00
2022-09-10T16:31:46.325Z,100.00
2022-09-10T16:34:17.577Z,100.00
2022-09-10T16:36:48.932Z,100.00
2022-09-10T16:39:19.756Z,100.00
2022-09-10T16:41:49.905Z,100.00
2022-09-10T16:44:19.363Z,100.00
2022-09-10T16:46:49.967Z,100.00
2022-09-10T16:49:21.717Z,100.00
2022-09-10T16:51:51.469Z,100.00
2022-09-10T16:54:20.131Z,100.00
2022-09-10T16:56:49.310Z,100.00
2022-09-10T16:59:26.943Z,100.00
2022-09-10T17:01:59.634Z,100.00
2022-09-10T17:04:29.585Z,100.00
2022-09-10T17:06:58.569Z,100.00
2022-09-10T17:09:27.547Z,100.00
2022-09-10T17:11:55.935Z,100.00
2022-09-10T17:14:28.073Z,100.00
2022-09-10T17:17:00.122Z,100.00
2022-09-10T17:19:29.409Z,100.00
2022-09-10T17:21:58.446Z,100.00
2022-09-10T17:24:28.394Z,100.00
2022-09-10T17:26:57.387Z,100.00
2022-09-10T17:29:26.875Z,100.00
2022-09-10T17:31:57.527Z,100.00
2022-09-10T17:34:28.306Z,100.00
2022-09-10T17:36:56.617Z,100.00
2022-09-10T17:39:28.419Z,100.00
2022-09-10T17:41:56.956Z,100.00
2022-09-10T17:44:25.810Z,100.00
2022-09-10T17:46:55.223Z,100.00
2022-09-10T17:49:24.508Z,100.00
2022-09-10T17:51:54.598Z,100.00
2022-09-10T17:54:26.755Z,100.00
2022-09-10T17:56:55.401Z,100.00
2022-09-10T17:59:26.143Z,100.00
2022-09-10T18:01:54.490Z,100.00
2022-09-10T18:04:22.952Z,100.00
2022-09-10T18:06:52.626Z,100.00
2022-09-10T18:09:23.691Z,100.00
2022-09-10T18:11:52.458Z,100.00
2022-09-10T18:14:22.209Z,100.00
2022-09-10T18:16:51.735Z,100.00
2022-09-10T18:19:20.379Z,100.00
2022-09-10T18:21:51.844Z,100.00
2022-09-10T18:24:23.867Z,100.00
2022-09-10T18:26:54.419Z,100.00
2022-09-10T18:29:25.525Z,100.00
2022-09-10T18:31:56.035Z,100.00
2022-09-10T18:34:28.352Z,100.00
2022-09-10T18:36:58.339Z,100.00
2022-09-10T18:39:30.729Z,100.00
2022-09-10T18:42:01.340Z,100.00
2022-09-10T18:44:34.535Z,100.00
2022-09-10T18:47:06.155Z,100.00
2022-09-10T18:49:39.928Z,100.00
2022-09-10T18:52:09.652Z,100.00
2022-09-10T18:54:44.675Z,100.00
2022-09-10T18:57:23.949Z,100.00
2022-09-10T18:59:55.390Z,100.00
2022-09-10T19:02:25.061Z,100.00
2022-09-10T19:05:10.818Z,100.00
2022-09-10T19:07:40.824Z,100.00
2022-09-10T19:10:13.325Z,100.00
2022-09-10T19:12:41.836Z,100.00
2022-09-10T19:15:10.954Z,100.00
2022-09-10T19:17:40.039Z,100.00
2022-09-10T19:20:10.012Z,100.00
2022-09-10T19:22:39.419Z,100.00
2022-09-10T19:25:09.579Z,100.00
2022-09-10T19:27:39.751Z,100.00
2022-09-10T19:30:09.417Z,100.00
2022-09-10T19:32:37.993Z,100.00
2022-09-10T19:35:07.309Z,100.00
2022-09-10T19:37:36.019Z,100.00
2022-09-10T19:40:05.261Z,100.00
2022-09-10T19:42:33.811Z,100.00
2022-09-10T19:45:07.012Z,100.00
2022-09-10T19:47:38.733Z,100.00
2022-09-10T19:50:08.656Z,100.00
2022-09-10T19:52:38.115Z,100.00
2022-09-10T19:55:07.317Z,100.00
2022-09-10T19:57:35.830Z,100.00
2022-09-10T20:00:06.971Z,100.00
2022-09-10T20:02:40.054Z,100.00
2022-09-10T20:05:10.046Z,100.00
2022-09-10T20:07:38.856Z,100.00
2022-09-10T20:10:08.637Z,100.00
2022-09-10T20:12:37.028Z,100.00
2022-09-10T20:15:08.867Z,100.00
2022-09-10T20:17:37.580Z,100.00
2022-09-10T20:20:07.155Z,100.00
2022-09-10T20:22:38.662Z,100.00
2022-09-10T20:25:07.406Z,100.00
2022-09-10T20:27:36.669Z,100.00
2022-09-10T20:30:07.435Z,100.00
2022-09-10T20:32:35.871Z,100.00
2022-09-10T20:35:04.168Z,100.00
2022-09-10T20:37:32.867Z,100.00
2022-09-10T20:40:01.304Z,100.00
2022-09-10T20:42:29.695Z,100.00
2022-09-10T20:44:57.946Z,100.00
2022-09-10T20:47:31.299Z,100.00
2022-09-10T20:49:59.536Z,100.00
2022-09-10T20:52:28.225Z,100.00
2022-09-10T20:54:56.539Z,100.00
2022-09-10T20:57:24.955Z,100.00
2022-09-10T20:59:53.150Z,100.00
2022-09-10T21:02:22.893Z,100.00
2022-09-10T21:04:53.168Z,100.00
2022-09-10T21:07:21.543Z,100.00
2022-09-10T21:09:50.726Z,100.00
2022-09-10T21:12:19.335Z,100.00
2022-09-10T21:14:47.577Z,100.00
2022-09-10T21:17:16.327Z,100.00
2022-09-10T21:19:44.804Z,100.00
2022-09-10T21:22:14.531Z,100.00
2022-09-10T21:24:43.653Z,100.00
2022-09-10T21:27:11.878Z,100.00
2022-09-10T21:29:40.142Z,100.00
2022-09-10T21:32:08.424Z,100.00
2022-09-10T21:34:36.972Z,100.00
2022-09-10T21:37:05.397Z,100.00
2022-09-10T21:39:35.211Z,100.00
2022-09-10T21:42:04.385Z,100.00
2022-09-10T21:44:33.066Z,100.00
2022-09-10T21:47:01.272Z,100.00
2022-09-10T21:49:29.640Z,100.00
2022-09-10T21:51:57.958Z,100.00
2022-09-10T21:54:26.457Z,100.00
2022-09-10T21:56:56.848Z,100.00
2022-09-10T21:59:26.833Z,100.00
2022-09-10T22:01:55.704Z,100.00
2022-09-10T22:04:24.115Z,100.00
2022-09-10T22:06:54.044Z,100.00
2022-09-10T22:09:22.460Z,100.00
2022-09-10T22:11:52.152Z,100.00
2022-09-10T22:14:23.106Z,100.00
2022-09-10T22:16:52.119Z,100.00
2022-09-10T22:19:22.442Z,100.00
2022-09-10T22:21:51.193Z,100.00
2022-09-10T22:24:19.495Z,100.00
2022-09-10T22:26:48.487Z,100.00
2022-09-10T22:29:18.555Z,100.00
2022-09-10T22:31:49.639Z,100.00
2022-09-10T22:34:18.899Z,100.00
2022-09-10T22:36:48.505Z,100.00
2022-09-10T22:39:18.877Z,100.00
2022-09-10T22:41:47.865Z,100.00
2022-09-10T22:44:17.804Z,100.00
2022-09-10T22:46:46.279Z,100.00
2022-09-10T22:49:17.083Z,100.00
2022-09-10T22:51:45.908Z,100.00
2022-09-10T22:54:14.323Z,100.00
2022-09-10T22:56:44.593Z,100.00
2022-09-10T22:59:14.053Z,100.00
2022-09-10T23:01:46.082Z,100.00
2022-09-10T23:04:16.394Z,100.00
2022-09-10T23:06:44.672Z,100.00
2022-09-10T23:09:14.965Z,100.00
2022-09-10T23:11:45.320Z,100.00
2022-09-10T23:14:15.614Z,100.00
2022-09-10T23:16:46.740Z,100.00
2022-09-10T23:19:18.755Z,100.00
2022-09-10T23:21:48.870Z,100.00
2022-09-10T23:24:18.925Z,100.00
2022-09-10T23:26:47.847Z,100.00
2022-09-10T23:29:17.112Z,100.00
2022-09-10T23:31:47.626Z,100.00
2022-09-10T23:34:18.656Z,100.00
2022-09-10T23:36:48.498Z,100.00
2022-09-10T23:39:18.133Z,100.00
2022-09-10T23:41:47.163Z,100.00
2022-09-10T23:44:15.341Z,100.00
2022-09-10T23:46:44.719Z,100.00
2022-09-10T23:49:13.394Z,100.00
2022-09-10T23:51:43.233Z,100.00
2022-09-10T23:54:12.328Z,100.00
2022-09-10T23:56:40.841Z,100.00
2022-09-10T23:59:09.415Z,100.00
